Time;durP1;ratioP1;P1;durP2;ratioP2;P2;SDS_P1;SDS_P2;PMS_P1;PMS_P2;Temp;Humidity;BMP_temperature;BMP_pressure;BME280_temperature;BME280_humidity;BME280_pressure;Samples;Min_cycle;Max_cycle;Signal;HPM_P1;HPM_P2
2021/08/24 00:01:45;;;;;;;3.27;2.73;;;15.00;99.90;;;;;;4934040;28;20636;-94
2021/08/24 00:04:12;;;;;;;3.60;3.30;;;15.00;99.90;;;;;;4935093;29;21025;-95
2021/08/24 00:06:39;;;;;;;3.60;2.80;;;15.00;99.90;;;;;;4920751;29;20767;-93
2021/08/24 00:09:06;;;;;;;4.03;2.83;;;15.00;99.90;;;;;;4931475;29;20623;-94
2021/08/24 00:11:34;;;;;;;6.33;4.07;;;15.00;99.90;;;;;;4928753;29;20679;-93
2021/08/24 00:14:01;;;;;;;4.97;3.80;;;15.10;99.90;;;;;;4930706;29;20649;-94
2021/08/24 00:16:30;;;;;;;3.30;3.03;;;15.00;99.90;;;;;;4930439;29;20639;-94
2021/08/24 00:18:57;;;;;;;3.47;3.17;;;15.00;99.90;;;;;;4932341;29;20635;-94
2021/08/24 00:21:23;;;;;;;4.80;3.40;;;15.00;99.90;;;;;;4928911;28;20655;-93
2021/08/24 00:23:50;;;;;;;5.33;3.40;;;14.90;99.90;;;;;;4930720;29;20746;-94
2021/08/24 00:26:19;;;;;;;5.17;3.30;;;14.90;99.90;;;;;;4933136;28;20636;-94
2021/08/24 00:28:46;;;;;;;5.13;3.37;;;14.90;99.90;;;;;;4930875;29;20642;-94
2021/08/24 00:31:13;;;;;;;2.97;2.77;;;14.90;99.90;;;;;;4939873;29;21158;-94
2021/08/24 00:33:41;;;;;;;3.70;3.30;;;14.90;99.90;;;;;;4926092;29;20635;-93
2021/08/24 00:36:12;;;;;;;5.00;3.60;;;14.90;99.90;;;;;;4934005;29;20677;-94
2021/08/24 00:38:39;;;;;;;3.87;3.57;;;14.80;99.90;;;;;;4934721;28;20638;-93
2021/08/24 00:41:07;;;;;;;7.00;3.60;;;14.80;99.90;;;;;;4933423;29;20662;-93
2021/08/24 00:43:38;;;;;;;3.50;3.20;;;14.70;99.90;;;;;;4942134;28;20730;-94
2021/08/24 00:46:19;;;;;;;3.50;3.27;;;14.80;99.90;;;;;;4933665;29;20718;-95
2021/08/24 00:48:49;;;;;;;6.83;3.67;;;14.70;99.90;;;;;;4933321;29;20639;-94
2021/08/24 00:51:20;;;;;;;4.40;3.53;;;14.70;99.90;;;;;;4936146;29;20778;-95
2021/08/24 00:53:48;;;;;;;4.80;3.63;;;14.70;99.90;;;;;;4931060;29;20633;-95
2021/08/24 00:56:15;;;;;;;4.20;3.83;;;14.60;99.90;;;;;;4937951;29;20638;-93
2021/08/24 00:58:45;;;;;;;4.00;3.60;;;14.60;99.90;;;;;;4934775;28;20646;-93
2021/08/24 01:01:12;;;;;;;3.70;3.30;;;14.60;99.90;;;;;;4932782;29;20693;-93
2021/08/24 01:03:42;;;;;;;4.10;3.70;;;14.60;99.90;;;;;;4939494;29;20627;-93
2021/08/24 01:06:18;;;;;;;4.03;3.60;;;14.60;99.90;;;;;;4931764;29;20632;-94
2021/08/24 01:08:52;;;;;;;4.33;3.93;;;14.70;99.90;;;;;;4932034;29;20650;-95
2021/08/24 01:11:29;;;;;;;4.37;4.07;;;14.70;99.90;;;;;;4937327;29;21925;-94
2021/08/24 01:14:06;;;;;;;3.97;3.67;;;14.70;99.90;;;;;;4938171;29;20649;-94
2021/08/24 01:16:41;;;;;;;5.27;3.77;;;14.70;99.90;;;;;;4934019;29;21001;-95
2021/08/24 01:19:37;;;;;;;4.37;4.00;;;14.70;99.90;;;;;;4935416;29;21295;-94
2021/08/24 01:22:44;;;;;;;4.10;3.80;;;14.70;99.90;;;;;;4940219;29;20632;-94
2021/08/24 01:25:18;;;;;;;4.47;3.40;;;14.70;99.90;;;;;;4920693;29;20635;-94
2021/08/24 01:27:53;;;;;;;4.80;3.40;;;14.60;99.90;;;;;;4932943;28;20670;-94
2021/08/24 01:30:35;;;;;;;3.77;3.30;;;14.60;99.90;;;;;;4931821;29;20667;-94
2021/08/24 01:33:11;;;;;;;3.83;3.30;;;14.60;99.90;;;;;;4934913;29;21228;-94
2021/08/24 01:35:57;;;;;;;3.00;2.80;;;14.60;99.90;;;;;;4942615;29;20642;-94
2021/08/24 01:38:28;;;;;;;5.17;3.73;;;14.60;99.90;;;;;;4930906;29;20643;-95
2021/08/24 01:41:03;;;;;;;3.90;3.20;;;14.50;99.90;;;;;;4934814;29;20668;-93
2021/08/24 01:43:37;;;;;;;3.80;3.23;;;14.40;99.90;;;;;;4932447;29;20729;-96
2021/08/24 01:46:14;;;;;;;11.93;4.40;;;14.40;99.90;;;;;;4936085;29;20642;-95
2021/08/24 01:48:46;;;;;;;4.00;3.60;;;14.40;99.90;;;;;;4946530;29;20637;-95
2021/08/24 01:51:19;;;;;;;4.03;3.70;;;14.40;99.90;;;;;;4949978;29;20678;-95
2021/08/24 01:53:51;;;;;;;4.10;3.73;;;14.50;99.90;;;;;;4949610;28;20610;-95
2021/08/24 01:56:21;;;;;;;3.60;3.30;;;14.50;99.90;;;;;;4934901;29;20640;-94
2021/08/24 01:58:52;;;;;;;6.67;2.80;;;14.50;99.90;;;;;;4938377;29;20653;-94
2021/08/24 02:01:29;;;;;;;4.20;3.37;;;14.40;99.90;;;;;;4934378;29;21144;-96
2021/08/24 02:03:59;;;;;;;5.63;3.50;;;14.60;99.90;;;;;;4943257;29;20646;-96
2021/08/24 02:06:33;;;;;;;9.93;3.43;;;14.50;99.90;;;;;;4943331;29;20641;-93
2021/08/24 02:09:07;;;;;;;3.43;3.13;;;14.50;99.90;;;;;;4940703;29;20631;-94
2021/08/24 02:11:36;;;;;;;3.80;3.47;;;14.50;99.90;;;;;;4938981;28;20638;-93
2021/08/24 02:14:08;;;;;;;4.80;3.07;;;14.50;99.90;;;;;;4933833;29;20642;-94
2021/08/24 02:16:37;;;;;;;3.00;2.80;;;14.40;99.90;;;;;;4942976;28;20666;-92
2021/08/24 02:19:08;;;;;;;4.47;3.97;;;14.30;99.90;;;;;;4944393;29;21207;-94
2021/08/24 02:21:41;;;;;;;5.83;3.33;;;14.20;99.90;;;;;;4942257;29;21202;-94
2021/08/24 02:24:12;;;;;;;3.20;3.00;;;14.20;99.90;;;;;;4930702;29;21234;-94
2021/08/24 02:26:41;;;;;;;5.03;2.90;;;14.20;99.90;;;;;;4931291;29;20588;-94
2021/08/24 02:29:08;;;;;;;5.67;3.60;;;14.00;99.90;;;;;;4933603;29;20669;-93
2021/08/24 02:31:43;;;;;;;4.37;3.30;;;14.00;99.90;;;;;;4937404;28;20670;-95
2021/08/24 02:34:18;;;;;;;3.73;3.17;;;14.00;99.90;;;;;;4942112;29;20660;-93
2021/08/24 02:36:53;;;;;;;4.30;3.37;;;13.90;99.90;;;;;;4933409;28;20631;-94
2021/08/24 02:39:28;;;;;;;3.60;3.27;;;13.90;99.90;;;;;;4936801;28;21036;-94
2021/08/24 02:42:02;;;;;;;4.43;4.00;;;13.80;99.90;;;;;;4941198;29;21206;-95
2021/08/24 02:44:36;;;;;;;3.73;3.20;;;13.70;99.90;;;;;;4931839;29;21014;-93
2021/08/24 02:47:04;;;;;;;4.63;3.80;;;13.70;99.90;;;;;;4940263;29;20634;-94
2021/08/24 02:49:33;;;;;;;4.00;3.70;;;13.60;99.90;;;;;;4935775;28;20668;-94
2021/08/24 02:52:05;;;;;;;5.63;3.63;;;13.60;99.90;;;;;;4928307;28;20659;-94
2021/08/24 02:54:35;;;;;;;6.83;3.33;;;13.40;99.90;;;;;;4934075;29;20698;-96
2021/08/24 02:57:04;;;;;;;3.93;3.60;;;13.30;99.90;;;;;;4932821;29;20651;-95
2021/08/24 02:59:33;;;;;;;8.70;3.73;;;13.30;99.90;;;;;;4930888;29;20640;-95
2021/08/24 03:02:00;;;;;;;4.67;4.27;;;13.20;99.90;;;;;;4944834;29;21143;-93
2021/08/24 03:04:28;;;;;;;7.13;5.07;;;13.20;99.90;;;;;;4945423;29;20705;-94
2021/08/24 03:06:58;;;;;;;5.87;4.40;;;13.00;99.90;;;;;;4941013;29;20630;-95
2021/08/24 03:09:29;;;;;;;4.47;4.07;;;13.00;99.90;;;;;;4958763;28;20629;-93
2021/08/24 03:12:05;;;;;;;6.00;4.50;;;12.90;99.90;;;;;;4965805;28;20730;-95
2021/08/24 03:14:38;;;;;;;4.80;4.30;;;12.80;99.90;;;;;;4957124;28;21166;-93
2021/08/24 03:17:13;;;;;;;5.03;4.63;;;12.70;99.90;;;;;;4937108;29;20627;-93
2021/08/24 03:19:42;;;;;;;6.43;5.83;;;12.70;99.90;;;;;;4933867;29;20630;-93
2021/08/24 03:22:11;;;;;;;6.70;4.63;;;12.60;99.90;;;;;;4930319;29;21449;-92
2021/08/24 03:24:41;;;;;;;4.83;4.40;;;12.50;99.90;;;;;;4939665;29;20665;-93
2021/08/24 03:27:11;;;;;;;5.27;4.83;;;12.50;99.90;;;;;;4937725;29;20608;-93
2021/08/24 03:29:38;;;;;;;5.27;4.87;;;12.40;99.90;;;;;;4937916;29;21197;-93
2021/08/24 03:32:08;;;;;;;5.50;5.10;;;12.30;99.90;;;;;;4937489;29;20671;-93
2021/08/24 03:34:35;;;;;;;7.00;4.77;;;12.30;99.90;;;;;;4940998;28;20682;-94
2021/08/24 03:37:02;;;;;;;5.57;5.10;;;12.30;99.90;;;;;;4926182;29;20648;-93
2021/08/24 03:39:29;;;;;;;5.90;5.30;;;12.20;99.90;;;;;;4936166;28;20638;-93
2021/08/24 03:41:57;;;;;;;8.43;5.63;;;12.10;99.90;;;;;;4925873;29;20644;-93
2021/08/24 03:44:24;;;;;;;6.53;5.40;;;12.10;99.90;;;;;;4938091;29;20652;-93
2021/08/24 03:46:51;;;;;;;6.90;4.90;;;12.00;99.90;;;;;;4932446;29;21263;-93
2021/08/24 03:49:18;;;;;;;6.63;5.30;;;11.90;99.90;;;;;;4932138;28;20643;-93
2021/08/24 03:51:44;;;;;;;8.10;5.47;;;11.90;99.90;;;;;;4937868;29;20663;-94
2021/08/24 03:54:11;;;;;;;7.60;5.03;;;11.80;99.90;;;;;;4934605;29;20645;-94
2021/08/24 03:56:40;;;;;;;7.07;6.47;;;11.80;99.90;;;;;;4936154;28;20629;-92
2021/08/24 03:59:08;;;;;;;6.03;5.63;;;11.80;99.90;;;;;;4934527;28;21010;-93
2021/08/24 04:01:35;;;;;;;7.90;6.00;;;11.80;99.90;;;;;;4934606;29;20654;-93
2021/08/24 04:04:02;;;;;;;6.40;5.90;;;11.70;99.90;;;;;;4938634;29;20659;-93
2021/08/24 04:06:29;;;;;;;6.80;6.10;;;11.80;99.90;;;;;;4942317;28;20642;-92
2021/08/24 04:08:55;;;;;;;8.67;5.87;;;11.70;99.90;;;;;;4938798;28;20634;-92
2021/08/24 04:11:22;;;;;;;6.40;5.80;;;11.60;99.90;;;;;;4934150;29;20639;-92
2021/08/24 04:13:49;;;;;;;7.00;6.30;;;11.60;99.90;;;;;;4930146;29;20647;-91
2021/08/24 04:16:18;;;;;;;6.90;6.30;;;11.60;99.90;;;;;;4932052;29;20623;-91
2021/08/24 04:18:45;;;;;;;8.73;6.07;;;11.60;99.90;;;;;;4931479;28;20644;-92
2021/08/24 04:21:14;;;;;;;6.40;5.83;;;11.50;99.90;;;;;;4932171;29;21218;-92
2021/08/24 04:23:42;;;;;;;5.43;5.03;;;11.50;99.90;;;;;;4928064;29;20650;-92
2021/08/24 04:26:11;;;;;;;7.00;6.40;;;11.50;99.90;;;;;;4935195;29;20978;-93
2021/08/24 04:28:38;;;;;;;8.27;6.83;;;11.50;99.90;;;;;;4930245;28;21220;-93
2021/08/24 04:31:08;;;;;;;7.67;7.07;;;11.50;99.90;;;;;;4933905;29;21508;-92
2021/08/24 04:33:38;;;;;;;6.90;6.40;;;11.40;99.90;;;;;;4937318;29;20770;-96
2021/08/24 04:36:06;;;;;;;7.40;6.80;;;11.40;99.90;;;;;;4943159;28;20655;-94
2021/08/24 04:38:34;;;;;;;8.10;7.07;;;11.40;99.90;;;;;;4931877;29;20677;-94
2021/08/24 04:41:01;;;;;;;8.30;7.70;;;11.40;99.90;;;;;;4947771;29;20651;-94
2021/08/24 04:43:28;;;;;;;6.73;6.23;;;11.40;99.90;;;;;;4940577;28;20639;-94
2021/08/24 04:45:57;;;;;;;11.57;10.63;;;11.40;99.90;;;;;;4946456;29;20634;-94
2021/08/24 04:48:24;;;;;;;7.97;7.20;;;11.40;99.90;;;;;;4956559;29;20731;-92
2021/08/24 04:50:53;;;;;;;8.73;7.93;;;11.30;99.90;;;;;;4937451;29;20685;-94
2021/08/24 04:53:20;;;;;;;7.50;6.80;;;11.30;99.90;;;;;;4941766;28;20667;-94
2021/08/24 04:55:48;;;;;;;7.63;6.10;;;11.40;99.90;;;;;;4943167;29;20726;-95
2021/08/24 04:58:16;;;;;;;7.80;7.20;;;11.40;99.90;;;;;;4945981;29;20666;-94
2021/08/24 05:00:43;;;;;;;8.43;7.63;;;11.40;99.90;;;;;;4945713;28;20639;-95
2021/08/24 05:03:10;;;;;;;7.50;6.90;;;11.50;99.90;;;;;;4947588;29;20631;-94
2021/08/24 05:05:38;;;;;;;7.13;6.50;;;11.60;99.90;;;;;;4941300;29;20734;-95
2021/08/24 05:08:09;;;;;;;7.47;6.77;;;11.50;99.90;;;;;;4943928;28;21111;-94
2021/08/24 05:10:37;;;;;;;6.40;5.80;;;11.50;99.90;;;;;;4944016;29;20662;-95
2021/08/24 05:13:05;;;;;;;8.77;8.00;;;11.60;99.90;;;;;;4948363;29;20683;-95
2021/08/24 05:15:33;;;;;;;10.57;9.57;;;11.70;99.90;;;;;;4942693;29;20638;-95
2021/08/24 05:18:02;;;;;;;11.57;10.67;;;11.70;99.90;;;;;;4941655;29;20678;-94
2021/08/24 05:20:30;;;;;;;13.23;12.07;;;11.80;99.90;;;;;;4939922;28;20645;-94
2021/08/24 05:22:58;;;;;;;11.97;11.17;;;11.80;99.90;;;;;;4947836;28;20628;-95
2021/08/24 05:25:31;;;;;;;9.00;8.20;;;11.90;99.90;;;;;;4940675;29;20653;-95
2021/08/24 05:27:57;;;;;;;9.37;8.20;;;12.00;99.90;;;;;;4942910;29;20638;-92
2021/08/24 05:30:27;;;;;;;7.93;7.20;;;12.20;99.90;;;;;;4946889;29;20645;-95
2021/08/24 05:33:04;;;;;;;6.90;6.30;;;12.30;99.90;;;;;;4944133;29;20695;-96
2021/08/24 05:35:33;;;;;;;9.33;6.40;;;12.40;99.90;;;;;;4952651;29;21025;-96
2021/08/24 05:38:02;;;;;;;6.77;6.27;;;12.60;99.90;;;;;;4948102;29;20730;-95
2021/08/24 05:48:49;;;;;;;5.60;5.10;;;12.90;99.90;;;;;;4964315;28;20634;-96
2021/08/24 05:51:19;;;;;;;4.73;4.33;;;13.10;99.90;;;;;;4973987;28;20625;-96
2021/08/24 05:53:52;;;;;;;4.77;4.40;;;13.30;99.90;;;;;;4961578;28;20657;-96
2021/08/24 05:56:49;;;;;;;4.73;4.40;;;13.50;99.90;;;;;;4964903;28;20732;-96
2021/08/24 05:59:24;;;;;;;4.80;4.40;;;13.70;99.90;;;;;;4984241;28;20645;-96
2021/08/24 06:01:52;;;;;;;4.80;4.40;;;13.90;99.90;;;;;;4974475;28;20646;-94
2021/08/24 06:04:23;;;;;;;5.23;4.70;;;14.00;99.90;;;;;;4974742;28;20654;-95
2021/08/24 06:09:44;;;;;;;5.07;4.67;;;14.10;99.90;;;;;;4972360;28;20681;-96
2021/08/24 06:12:15;;;;;;;5.33;4.70;;;14.20;99.90;;;;;;4974527;28;20673;-95
2021/08/24 06:43:49;;;;;;;5.67;4.70;;;14.70;99.90;;;;;;4985736;28;20671;-95
2021/08/24 06:46:25;;;;;;;5.70;4.40;;;14.70;99.90;;;;;;4981997;28;20624;-95
2021/08/24 06:48:58;;;;;;;5.47;4.47;;;14.80;99.90;;;;;;4981926;28;20679;-96
2021/08/24 06:51:33;;;;;;;6.00;4.30;;;14.90;99.90;;;;;;4999678;28;20707;-96
2021/08/24 07:10:22;;;;;;;5.13;4.37;;;15.20;99.90;;;;;;4995532;28;20565;-95
2021/08/24 07:12:51;;;;;;;4.20;3.90;;;15.10;99.90;;;;;;4987937;28;20760;-94
2021/08/24 07:15:23;;;;;;;5.47;3.87;;;15.00;99.90;;;;;;4981872;28;21540;-95
2021/08/24 07:17:53;;;;;;;4.43;4.03;;;14.90;99.90;;;;;;4976335;28;20749;-93
2021/08/24 07:20:27;;;;;;;4.87;4.30;;;14.90;99.90;;;;;;4974772;28;20647;-94
2021/08/24 07:22:56;;;;;;;5.50;3.73;;;15.00;99.90;;;;;;4976575;28;20640;-94
2021/08/24 07:25:26;;;;;;;5.03;4.37;;;14.90;99.90;;;;;;4971887;28;20641;-94
2021/08/24 07:27:53;;;;;;;3.97;3.67;;;15.00;99.90;;;;;;4974135;28;20645;-93
2021/08/24 07:30:20;;;;;;;5.10;4.20;;;15.20;99.90;;;;;;4973703;28;20645;-94
2021/08/24 07:32:49;;;;;;;5.90;5.00;;;15.10;99.90;;;;;;4972124;28;20674;-93
2021/08/24 07:35:20;;;;;;;5.80;4.53;;;15.10;99.90;;;;;;4974762;28;21183;-94
2021/08/24 07:37:47;;;;;;;4.00;3.70;;;15.00;99.90;;;;;;4972157;28;21321;-94
2021/08/24 07:40:15;;;;;;;4.50;4.10;;;15.10;99.90;;;;;;4975086;28;20638;-95
2021/08/24 07:42:46;;;;;;;3.87;3.57;;;15.20;99.90;;;;;;4974894;28;20714;-94
2021/08/24 07:45:14;;;;;;;5.10;3.97;;;15.30;99.90;;;;;;4975155;28;20638;-94
2021/08/24 07:47:41;;;;;;;3.80;3.50;;;15.60;99.90;;;;;;4975411;28;21083;-94
2021/08/24 07:50:09;;;;;;;3.97;3.57;;;15.90;99.90;;;;;;4973925;28;20713;-95
2021/08/24 07:52:37;;;;;;;5.50;3.07;;;15.90;99.90;;;;;;4976887;28;20687;-94
2021/08/24 07:55:11;;;;;;;4.00;3.37;;;16.20;99.90;;;;;;4978921;28;20644;-95
2021/08/24 07:57:43;;;;;;;3.80;3.50;;;16.20;99.90;;;;;;4981361;28;21188;-95
2021/08/24 08:00:13;;;;;;;3.27;3.00;;;16.10;99.90;;;;;;4975895;28;20704;-94
2021/08/24 08:02:41;;;;;;;4.10;3.50;;;16.00;99.90;;;;;;4977342;28;20996;-94
2021/08/24 08:05:11;;;;;;;3.80;3.50;;;16.10;99.90;;;;;;4977622;28;20641;-96
2021/08/24 08:07:44;;;;;;;3.77;3.50;;;16.20;99.90;;;;;;4981855;28;20692;-95
2021/08/24 08:10:16;;;;;;;3.40;3.07;;;16.00;99.90;;;;;;5005067;28;20636;-94
2021/08/24 08:12:46;;;;;;;3.00;2.80;;;16.30;99.90;;;;;;4989558;28;20645;-95
2021/08/24 08:18:05;;;;;;;3.53;3.20;;;16.40;99.90;;;;;;4994862;28;20697;-94
2021/08/24 08:20:40;;;;;;;5.17;3.23;;;16.70;99.90;;;;;;4992712;28;20666;-94
2021/08/24 08:23:16;;;;;;;4.17;3.70;;;16.90;99.90;;;;;;4989687;28;20721;-96
2021/08/24 08:25:46;;;;;;;3.53;3.23;;;17.50;99.90;;;;;;4980975;28;20646;-94
2021/08/24 08:28:18;;;;;;;4.63;3.50;;;17.80;99.90;;;;;;4981289;28;20738;-96
2021/08/24 08:31:23;;;;;;;5.53;3.50;;;17.50;99.90;;;;;;4986846;28;20664;-96
2021/08/24 08:33:54;;;;;;;3.13;2.83;;;17.20;99.90;;;;;;4982086;28;21396;-96
2021/08/24 08:42:26;;;;;;;4.27;3.10;;;16.80;99.90;;;;;;4985871;28;20717;-95
2021/08/24 08:45:06;;;;;;;3.47;2.97;;;17.00;99.90;;;;;;4976270;28;20629;-95
2021/08/24 08:47:50;;;;;;;4.30;3.00;;;17.30;99.90;;;;;;4986636;28;20705;-95
2021/08/24 08:50:25;;;;;;;4.00;2.70;;;17.30;99.90;;;;;;4982742;28;20644;-94
2021/08/24 08:53:05;;;;;;;2.70;2.50;;;17.20;99.90;;;;;;4976567;28;20784;-95
2021/08/24 08:55:40;;;;;;;4.00;3.60;;;17.20;99.90;;;;;;4972902;28;20639;-96
2021/08/24 08:58:28;;;;;;;4.10;3.80;;;17.10;99.90;;;;;;4976504;28;20647;-95
2021/08/24 09:01:00;;;;;;;3.70;3.40;;;17.10;99.90;;;;;;4975629;28;20668;-95
2021/08/24 09:03:42;;;;;;;3.67;3.27;;;16.90;99.90;;;;;;4979065;28;21028;-95
2021/08/24 09:06:11;;;;;;;3.43;3.13;;;17.00;99.90;;;;;;4976207;28;20657;-95
2021/08/24 09:08:41;;;;;;;3.63;2.47;;;17.00;99.90;;;;;;4974319;28;20664;-95
2021/08/24 09:11:10;;;;;;;8.10;3.00;;;17.20;99.90;;;;;;4974738;28;20667;-94
2021/08/24 09:13:45;;;;;;;5.40;3.20;;;17.00;99.90;;;;;;4974866;28;21108;-94
2021/08/24 09:16:21;;;;;;;3.70;3.37;;;16.90;99.90;;;;;;4982050;28;21179;-94
2021/08/24 09:18:51;;;;;;;4.10;3.70;;;17.00;99.90;;;;;;4977822;28;20755;-95
2021/08/24 09:21:25;;;;;;;5.33;3.37;;;17.00;99.90;;;;;;4971773;28;21281;-95
2021/08/24 09:23:53;;;;;;;4.60;3.60;;;17.10;99.90;;;;;;4978861;28;21320;-94
2021/08/24 09:26:47;;;;;;;4.00;3.60;;;17.00;99.90;;;;;;4978214;28;20634;-93
2021/08/24 09:29:16;;;;;;;3.53;3.20;;;17.10;99.90;;;;;;4979788;28;20642;-94
2021/08/24 09:31:47;;;;;;;4.40;2.97;;;16.90;99.90;;;;;;4989680;28;20649;-94
2021/08/24 09:34:17;;;;;;;3.90;3.00;;;16.80;99.90;;;;;;4998215;28;20679;-94
2021/08/24 09:36:47;;;;;;;5.00;3.30;;;16.70;99.90;;;;;;4997638;28;20661;-95
2021/08/24 09:39:14;;;;;;;4.00;3.43;;;16.90;99.90;;;;;;4991645;28;20668;-94
2021/08/24 09:42:06;;;;;;;4.47;4.07;;;16.90;99.90;;;;;;5002511;28;20736;-96
2021/08/24 09:44:35;;;;;;;6.10;4.57;;;17.00;99.90;;;;;;4984055;28;20645;-94
2021/08/24 09:47:14;;;;;;;3.13;2.93;;;17.00;99.90;;;;;;4988427;28;20617;-95
2021/08/24 09:49:42;;;;;;;3.47;3.17;;;17.10;99.90;;;;;;4986707;28;20992;-96
2021/08/24 09:52:27;;;;;;;4.27;3.70;;;16.90;99.90;;;;;;4988396;28;20768;-95
2021/08/24 09:54:58;;;;;;;2.90;2.70;;;16.90;99.90;;;;;;4986099;28;20661;-94
2021/08/24 09:57:28;;;;;;;4.33;3.63;;;17.00;99.90;;;;;;4990676;28;20633;-94
2021/08/24 09:59:59;;;;;;;3.77;3.43;;;17.10;99.90;;;;;;4992519;28;20617;-94
2021/08/24 10:05:36;;;;;;;4.17;3.10;;;17.10;99.90;;;;;;4985940;28;20700;-94
2021/08/24 10:08:28;;;;;;;3.37;3.13;;;17.10;99.90;;;;;;4991167;28;20653;-95
2021/08/24 10:11:05;;;;;;;3.70;3.40;;;17.60;99.90;;;;;;4988027;28;20805;-95
2021/08/24 10:13:34;;;;;;;3.33;2.50;;;18.20;99.90;;;;;;4988114;28;20677;-96
2021/08/24 10:16:07;;;;;;;3.70;3.40;;;18.10;99.90;;;;;;4988020;28;20633;-95
2021/08/24 10:18:38;;;;;;;3.50;3.20;;;18.30;99.90;;;;;;4982272;28;20720;-95
2021/08/24 10:21:08;;;;;;;3.37;3.10;;;18.30;99.90;;;;;;4974996;28;20748;-95
2021/08/24 10:23:41;;;;;;;3.90;3.50;;;18.20;99.90;;;;;;4981921;28;20617;-95
2021/08/24 10:26:11;;;;;;;4.93;2.80;;;18.00;99.90;;;;;;4982538;28;20645;-96
2021/08/24 10:28:49;;;;;;;3.77;3.47;;;17.90;99.90;;;;;;4980672;28;20636;-95
2021/08/24 10:31:38;;;;;;;3.30;3.00;;;17.90;99.90;;;;;;4976782;28;20736;-95
2021/08/24 10:36:52;;;;;;;3.77;3.47;;;17.80;99.90;;;;;;4973463;28;20696;-95
2021/08/24 10:39:30;;;;;;;3.80;2.93;;;17.50;99.90;;;;;;4979497;28;20973;-96
2021/08/24 10:42:08;;;;;;;4.53;4.13;;;17.40;99.90;;;;;;4980884;28;20653;-94
2021/08/24 10:44:45;;;;;;;3.60;3.20;;;17.40;99.90;;;;;;4979792;28;20629;-93
2021/08/24 10:47:24;;;;;;;3.50;3.20;;;17.60;99.90;;;;;;4977684;28;21063;-94
2021/08/24 10:49:53;;;;;;;3.33;3.00;;;17.50;99.90;;;;;;4977640;28;20633;-94
2021/08/24 10:52:37;;;;;;;3.00;2.80;;;17.50;99.90;;;;;;4971951;28;21035;-95
2021/08/24 10:55:12;;;;;;;3.43;3.10;;;17.60;99.90;;;;;;4975983;28;20852;-95
2021/08/24 10:57:53;;;;;;;3.53;3.23;;;17.60;99.90;;;;;;4978869;28;20714;-94
2021/08/24 11:00:35;;;;;;;3.90;3.50;;;17.70;99.90;;;;;;4970328;28;20643;-94
2021/08/24 11:03:23;;;;;;;4.50;3.90;;;17.90;99.90;;;;;;4975925;28;20993;-96
2021/08/24 11:05:56;;;;;;;3.40;3.20;;;17.90;99.90;;;;;;4980022;28;20671;-94
2021/08/24 11:08:40;;;;;;;3.53;3.23;;;18.10;99.90;;;;;;4975619;28;20648;-95
2021/08/24 11:11:26;;;;;;;5.67;3.30;;;17.90;99.90;;;;;;4976453;28;20657;-94
2021/08/24 11:14:00;;;;;;;3.40;2.87;;;18.10;99.90;;;;;;4975086;28;21261;-93
2021/08/24 11:16:46;;;;;;;3.13;2.90;;;18.20;99.90;;;;;;4980980;28;20643;-95
2021/08/24 11:19:28;;;;;;;3.10;2.70;;;18.60;99.90;;;;;;4976920;28;20625;-95
2021/08/24 11:22:23;;;;;;;3.10;2.80;;;18.70;99.90;;;;;;4974569;28;20641;-95
2021/08/24 11:24:58;;;;;;;3.70;3.40;;;18.90;99.90;;;;;;4975822;28;20641;-94
2021/08/24 11:27:34;;;;;;;3.50;3.00;;;19.40;99.90;;;;;;4975689;28;20640;-94
2021/08/24 11:30:09;;;;;;;2.97;2.70;;;19.30;99.90;;;;;;4976701;28;21212;-94
2021/08/24 11:32:41;;;;;;;3.33;3.00;;;19.60;99.90;;;;;;4979719;28;21002;-93
2021/08/24 11:35:13;;;;;;;3.33;2.20;;;20.10;99.90;;;;;;4975148;28;20661;-94
2021/08/24 11:37:47;;;;;;;3.67;3.37;;;20.60;99.90;;;;;;4970595;28;20586;-92
2021/08/24 11:40:18;;;;;;;3.33;3.13;;;20.30;99.90;;;;;;4974345;28;20632;-92
2021/08/24 11:42:52;;;;;;;3.13;2.83;;;20.00;99.90;;;;;;4973236;28;20655;-95
2021/08/24 11:45:30;;;;;;;3.33;2.90;;;20.20;99.90;;;;;;4977878;28;20648;-95
2021/08/24 11:48:03;;;;;;;3.40;3.20;;;21.00;99.90;;;;;;4969385;28;20641;-93
2021/08/24 11:50:38;;;;;;;2.77;2.57;;;21.20;99.90;;;;;;4971960;28;20645;-95
2021/08/24 11:53:21;;;;;;;2.50;2.30;;;21.60;99.90;;;;;;4970773;28;20648;-92
2021/08/24 11:55:56;;;;;;;3.30;2.97;;;22.70;99.90;;;;;;4971459;28;20637;-92
2021/08/24 11:58:41;;;;;;;2.57;2.37;;;23.10;99.90;;;;;;4972057;28;20749;-94
2021/08/24 12:01:10;;;;;;;2.90;2.70;;;23.20;99.90;;;;;;4971711;28;20661;-94
2021/08/24 12:03:47;;;;;;;3.57;3.07;;;22.60;99.90;;;;;;4974187;28;20633;-94
2021/08/24 12:06:21;;;;;;;3.43;3.10;;;21.80;99.90;;;;;;4970521;28;21324;-93
2021/08/24 12:08:53;;;;;;;3.27;3.07;;;22.20;99.90;;;;;;4968369;28;20689;-93
2021/08/24 12:11:24;;;;;;;2.70;2.50;;;21.80;99.90;;;;;;4974085;28;20649;-93
2021/08/24 12:13:55;;;;;;;2.83;2.63;;;21.50;99.90;;;;;;4971955;28;20669;-93
2021/08/24 12:16:30;;;;;;;4.90;3.73;;;21.50;99.90;;;;;;4968934;28;20645;-93
2021/08/24 12:19:17;;;;;;;2.37;2.27;;;21.00;99.90;;;;;;4974631;28;21196;-93
2021/08/24 12:21:55;;;;;;;3.43;2.50;;;20.00;99.90;;;;;;4972804;28;21057;-93
2021/08/24 12:24:51;;;;;;;2.83;2.40;;;19.60;99.90;;;;;;4969759;28;20652;-94
2021/08/24 12:27:57;;;;;;;3.03;2.83;;;19.60;99.90;;;;;;4977367;28;20610;-93
2021/08/24 12:30:31;;;;;;;2.63;2.43;;;19.60;99.90;;;;;;4972470;28;20967;-93
2021/08/24 12:33:30;;;;;;;9.47;3.47;;;19.50;99.90;;;;;;4968302;28;20669;-93
2021/08/24 12:35:58;;;;;;;3.30;3.00;;;19.40;99.90;;;;;;4968624;28;20633;-94
2021/08/24 12:38:47;;;;;;;3.50;3.20;;;19.50;99.90;;;;;;4969883;28;20668;-93
2021/08/24 12:41:46;;;;;;;3.37;3.17;;;19.20;99.90;;;;;;4971636;28;21013;-93
2021/08/24 12:44:23;;;;;;;3.70;3.40;;;19.30;99.90;;;;;;4961099;28;20680;-92
2021/08/24 12:47:09;;;;;;;6.90;2.93;;;19.30;99.90;;;;;;4971634;28;20663;-92
2021/08/24 12:49:36;;;;;;;3.93;3.47;;;19.30;99.90;;;;;;4974118;28;20637;-91
2021/08/24 12:52:36;;;;;;;3.40;3.17;;;19.20;99.90;;;;;;4971543;28;21029;-93
2021/08/24 12:55:11;;;;;;;2.87;2.67;;;19.70;99.90;;;;;;4973764;28;20668;-93
2021/08/24 12:57:45;;;;;;;3.33;2.90;;;20.00;99.90;;;;;;4972722;28;20635;-93
2021/08/24 13:00:25;;;;;;;5.50;3.03;;;19.80;99.90;;;;;;4984807;28;20644;-93
2021/08/24 13:03:02;;;;;;;2.97;2.77;;;19.60;99.90;;;;;;4981726;28;20620;-94
2021/08/24 13:05:31;;;;;;;2.90;2.70;;;19.50;99.90;;;;;;4971111;28;20638;-94
2021/08/24 13:08:20;;;;;;;3.80;3.50;;;20.00;99.90;;;;;;4977331;28;20622;-93
2021/08/24 13:10:55;;;;;;;3.67;3.37;;;20.30;99.90;;;;;;4980019;28;20664;-93
2021/08/24 13:14:01;;;;;;;3.20;3.00;;;20.30;99.90;;;;;;4973411;28;20651;-93
2021/08/24 13:16:32;;;;;;;2.80;2.60;;;19.90;99.90;;;;;;4973987;28;20688;-94
2021/08/24 13:19:02;;;;;;;2.63;2.43;;;19.80;99.90;;;;;;4973428;28;20728;-93
2021/08/24 13:21:38;;;;;;;4.70;2.50;;;19.70;99.90;;;;;;4978163;28;20664;-93
2021/08/24 13:24:10;;;;;;;3.93;2.40;;;19.60;99.90;;;;;;4979141;28;20620;-94
2021/08/24 13:26:50;;;;;;;4.87;3.40;;;19.70;99.90;;;;;;4985263;28;20633;-94
2021/08/24 13:29:17;;;;;;;2.83;2.63;;;19.70;99.90;;;;;;4979649;28;20615;-93
2021/08/24 13:31:49;;;;;;;3.37;3.07;;;19.40;99.90;;;;;;4973574;28;20657;-93
2021/08/24 13:34:28;;;;;;;3.13;2.60;;;19.30;99.90;;;;;;4981555;28;20662;-93
2021/08/24 13:36:56;;;;;;;3.23;2.97;;;19.50;99.90;;;;;;4974494;28;20619;-92
2021/08/24 13:39:23;;;;;;;3.70;3.40;;;19.60;99.90;;;;;;4980505;28;21241;-93
2021/08/24 13:41:52;;;;;;;2.80;2.60;;;19.70;99.90;;;;;;4973978;28;20683;-92
2021/08/24 13:44:22;;;;;;;3.67;3.37;;;19.60;99.90;;;;;;4976673;28;20629;-92
2021/08/24 13:46:58;;;;;;;4.70;2.73;;;19.80;99.90;;;;;;4974330;28;20613;-92
2021/08/24 13:49:28;;;;;;;3.00;2.80;;;20.20;99.90;;;;;;4981168;28;20637;-91
2021/08/24 13:51:58;;;;;;;2.70;2.50;;;20.20;99.90;;;;;;4971359;28;20648;-92
2021/08/24 13:54:28;;;;;;;5.73;2.67;;;20.30;99.90;;;;;;4973957;28;20661;-92
2021/08/24 13:56:55;;;;;;;2.60;2.40;;;20.40;99.90;;;;;;4974496;28;20641;-93
2021/08/24 13:59:28;;;;;;;3.13;2.90;;;20.10;99.90;;;;;;4976285;28;20728;-93
2021/08/24 14:01:58;;;;;;;3.30;3.10;;;20.20;99.90;;;;;;4970029;28;21216;-95
2021/08/24 14:04:44;;;;;;;3.17;2.87;;;20.20;99.90;;;;;;4973313;28;20640;-95
2021/08/24 14:07:17;;;;;;;3.63;3.37;;;20.20;99.90;;;;;;4978178;28;20637;-93
2021/08/24 14:09:47;;;;;;;3.93;3.53;;;20.40;99.90;;;;;;4984520;28;20617;-93
2021/08/24 14:12:23;;;;;;;4.23;3.57;;;20.70;99.90;;;;;;4982346;28;20708;-92
2021/08/24 14:14:58;;;;;;;3.60;3.00;;;20.40;99.90;;;;;;4983306;28;20664;-91
2021/08/24 14:17:32;;;;;;;3.40;3.10;;;20.50;99.90;;;;;;4969490;28;21166;-93
2021/08/24 14:20:03;;;;;;;3.33;3.13;;;20.70;99.90;;;;;;4970059;28;20644;-93
2021/08/24 14:22:30;;;;;;;3.57;3.37;;;20.90;99.90;;;;;;4972565;28;20668;-93
2021/08/24 14:25:00;;;;;;;4.07;3.77;;;20.80;99.90;;;;;;4974739;28;20704;-93
2021/08/24 14:27:28;;;;;;;3.10;2.90;;;20.80;99.90;;;;;;4970223;28;20637;-93